sensor_id;sensor_type;location;lat;lon;timestamp;temperature;humidity
23411;DHT22;11878;51.774;7.220;2022-10-13T00:00:48;8.40;99.90
23411;DHT22;11878;51.774;7.220;2022-10-13T00:03:50;8.60;99.90
23411;DHT22;11878;51.774;7.220;2022-10-13T00:06:53;8.50;99.90
23411;DHT22;11878;51.774;7.220;2022-10-13T00:09:59;8.60;99.90
23411;DHT22;11878;51.774;7.220;2022-10-13T00:13:01;8.60;99.90
23411;DHT22;11878;51.774;7.220;2022-10-13T00:16:03;8.60;99.90
23411;DHT22;11878;51.774;7.220;2022-10-13T00:19:05;8.60;99.90
23411;DHT22;11878;51.774;7.220;2022-10-13T00:22:07;8.60;99.90
23411;DHT22;11878;51.774;7.220;2022-10-13T00:25:08;8.60;99.90
23411;DHT22;11878;51.774;7.220;2022-10-13T00:28:11;8.70;99.90
23411;DHT22;11878;51.774;7.220;2022-10-13T00:31:21;8.70;99.90
23411;DHT22;11878;51.774;7.220;2022-10-13T00:34:23;8.60;99.90
23411;DHT22;11878;51.774;7.220;2022-10-13T00:37:24;8.70;99.90
23411;DHT22;11878;51.774;7.220;2022-10-13T00:40:26;8.70;99.90
23411;DHT22;11878;51.774;7.220;2022-10-13T00:44:05;8.70;99.90
23411;DHT22;11878;51.774;7.220;2022-10-13T00:47:08;8.80;99.90
23411;DHT22;11878;51.774;7.220;2022-10-13T00:50:16;8.80;99.90
23411;DHT22;11878;51.774;7.220;2022-10-13T00:53:22;8.70;99.90
23411;DHT22;11878;51.774;7.220;2022-10-13T00:56:25;8.80;99.90
23411;DHT22;11878;51.774;7.220;2022-10-13T00:59:27;8.90;99.90
23411;DHT22;11878;51.774;7.220;2022-10-13T01:02:32;8.80;99.90
23411;DHT22;11878;51.774;7.220;2022-10-13T01:05:37;8.80;99.90
23411;DHT22;11878;51.774;7.220;2022-10-13T01:08:39;8.90;99.90
23411;DHT22;11878;51.774;7.220;2022-10-13T01:22:16;9.00;99.90
23411;DHT22;11878;51.774;7.220;2022-10-13T01:25:37;9.00;99.90
23411;DHT22;11878;51.774;7.220;2022-10-13T01:32:22;9.10;99.90
23411;DHT22;11878;51.774;7.220;2022-10-13T01:42:03;9.10;99.90
23411;DHT22;11878;51.774;7.220;2022-10-13T01:45:14;8.90;99.90
23411;DHT22;11878;51.774;7.220;2022-10-13T01:48:18;8.90;99.90
23411;DHT22;11878;51.774;7.220;2022-10-13T01:51:26;8.80;99.90
23411;DHT22;11878;51.774;7.220;2022-10-13T01:54:28;9.10;99.90
23411;DHT22;11878;51.774;7.220;2022-10-13T01:57:39;9.20;99.90
23411;DHT22;11878;51.774;7.220;2022-10-13T02:00:50;9.20;99.90
23411;DHT22;11878;51.774;7.220;2022-10-13T02:03:56;9.10;99.90
23411;DHT22;11878;51.774;7.220;2022-10-13T02:07:14;9.00;99.90
23411;DHT22;11878;51.774;7.220;2022-10-13T02:10:39;8.90;99.90
23411;DHT22;11878;51.774;7.220;2022-10-13T02:13:58;8.90;99.90
23411;DHT22;11878;51.774;7.220;2022-10-13T02:17:03;9.00;99.90
23411;DHT22;11878;51.774;7.220;2022-10-13T02:20:09;9.00;99.90
23411;DHT22;11878;51.774;7.220;2022-10-13T02:23:13;9.00;99.90
23411;DHT22;11878;51.774;7.220;2022-10-13T02:26:15;9.10;99.90
23411;DHT22;11878;51.774;7.220;2022-10-13T02:29:17;9.20;99.90
23411;DHT22;11878;51.774;7.220;2022-10-13T02:32:20;9.30;99.90
23411;DHT22;11878;51.774;7.220;2022-10-13T02:35:22;9.30;99.90
23411;DHT22;11878;51.774;7.220;2022-10-13T02:38:24;9.30;99.90
23411;DHT22;11878;51.774;7.220;2022-10-13T02:41:25;9.40;99.90
23411;DHT22;11878;51.774;7.220;2022-10-13T02:44:27;9.40;99.90
23411;DHT22;11878;51.774;7.220;2022-10-13T02:47:29;9.40;99.90
23411;DHT22;11878;51.774;7.220;2022-10-13T02:50:30;9.50;99.90
23411;DHT22;11878;51.774;7.220;2022-10-13T02:53:32;9.60;99.90
23411;DHT22;11878;51.774;7.220;2022-10-13T02:56:34;9.60;99.90
23411;DHT22;11878;51.774;7.220;2022-10-13T02:59:36;9.70;99.90
23411;DHT22;11878;51.774;7.220;2022-10-13T03:02:37;9.80;99.90
23411;DHT22;11878;51.774;7.220;2022-10-13T03:05:39;9.70;99.90
23411;DHT22;11878;51.774;7.220;2022-10-13T03:08:41;9.80;99.90
23411;DHT22;11878;51.774;7.220;2022-10-13T03:11:42;9.80;99.90
23411;DHT22;11878;51.774;7.220;2022-10-13T03:14:44;9.80;99.90
23411;DHT22;11878;51.774;7.220;2022-10-13T03:17:46;9.80;99.90
23411;DHT22;11878;51.774;7.220;2022-10-13T03:21:05;9.80;99.90
23411;DHT22;11878;51.774;7.220;2022-10-13T03:24:07;9.80;99.90
23411;DHT22;11878;51.774;7.220;2022-10-13T03:27:09;9.80;99.90
23411;DHT22;11878;51.774;7.220;2022-10-13T03:30:11;9.90;99.90
23411;DHT22;11878;51.774;7.220;2022-10-13T03:33:14;9.90;99.90
23411;DHT22;11878;51.774;7.220;2022-10-13T03:36:16;9.90;99.90
23411;DHT22;11878;51.774;7.220;2022-10-13T03:39:20;9.90;99.90
23411;DHT22;11878;51.774;7.220;2022-10-13T03:42:23;9.90;99.90
23411;DHT22;11878;51.774;7.220;2022-10-13T03:45:24;10.00;99.90
23411;DHT22;11878;51.774;7.220;2022-10-13T03:48:26;10.00;99.90
23411;DHT22;11878;51.774;7.220;2022-10-13T03:51:28;10.10;99.90
23411;DHT22;11878;51.774;7.220;2022-10-13T03:54:29;10.10;99.90
23411;DHT22;11878;51.774;7.220;2022-10-13T03:57:31;10.10;99.90
23411;DHT22;11878;51.774;7.220;2022-10-13T04:00:36;10.10;99.90
23411;DHT22;11878;51.774;7.220;2022-10-13T04:03:38;10.20;99.90
23411;DHT22;11878;51.774;7.220;2022-10-13T04:06:39;10.20;99.90
23411;DHT22;11878;51.774;7.220;2022-10-13T04:09:41;10.20;99.90
23411;DHT22;11878;51.774;7.220;2022-10-13T04:12:43;10.20;99.90
23411;DHT22;11878;51.774;7.220;2022-10-13T04:15:44;10.20;99.90
23411;DHT22;11878;51.774;7.220;2022-10-13T04:18:51;10.30;99.90
23411;DHT22;11878;51.774;7.220;2022-10-13T04:21:53;10.30;99.90
23411;DHT22;11878;51.774;7.220;2022-10-13T04:24:54;10.30;99.90
23411;DHT22;11878;51.774;7.220;2022-10-13T04:27:57;10.30;99.90
23411;DHT22;11878;51.774;7.220;2022-10-13T04:31:00;10.30;99.90
23411;DHT22;11878;51.774;7.220;2022-10-13T04:34:02;10.40;99.90
23411;DHT22;11878;51.774;7.220;2022-10-13T04:37:04;10.40;99.90
23411;DHT22;11878;51.774;7.220;2022-10-13T04:40:05;10.40;99.90
23411;DHT22;11878;51.774;7.220;2022-10-13T04:43:09;10.40;99.90
23411;DHT22;11878;51.774;7.220;2022-10-13T04:46:15;10.40;99.90
23411;DHT22;11878;51.774;7.220;2022-10-13T04:49:19;10.40;99.90
23411;DHT22;11878;51.774;7.220;2022-10-13T04:52:21;10.40;99.90
23411;DHT22;11878;51.774;7.220;2022-10-13T04:55:23;10.50;99.90
23411;DHT22;11878;51.774;7.220;2022-10-13T04:58:25;10.50;99.90
23411;DHT22;11878;51.774;7.220;2022-10-13T05:01:27;10.50;99.90
23411;DHT22;11878;51.774;7.220;2022-10-13T05:04:29;10.50;99.90
23411;DHT22;11878;51.774;7.220;2022-10-13T05:07:31;10.50;99.90
23411;DHT22;11878;51.774;7.220;2022-10-13T05:10:32;10.50;99.90
23411;DHT22;11878;51.774;7.220;2022-10-13T05:13:35;10.50;99.90
23411;DHT22;11878;51.774;7.220;2022-10-13T05:16:37;10.50;99.90
23411;DHT22;11878;51.774;7.220;2022-10-13T05:19:39;10.50;99.90
23411;DHT22;11878;51.774;7.220;2022-10-13T05:22:40;10.50;99.90
23411;DHT22;11878;51.774;7.220;2022-10-13T05:25:42;10.50;99.90
23411;DHT22;11878;51.774;7.220;2022-10-13T05:28:47;10.50;99.90
23411;DHT22;11878;51.774;7.220;2022-10-13T05:31:49;10.50;99.90
23411;DHT22;11878;51.774;7.220;2022-10-13T05:34:50;10.50;99.90
23411;DHT22;11878;51.774;7.220;2022-10-13T05:37:52;10.60;99.90
23411;DHT22;11878;51.774;7.220;2022-10-13T05:40:54;10.50;99.90
23411;DHT22;11878;51.774;7.220;2022-10-13T05:43:59;10.50;99.90
23411;DHT22;11878;51.774;7.220;2022-10-13T05:47:01;10.50;99.90
23411;DHT22;11878;51.774;7.220;2022-10-13T05:50:08;10.50;99.90
23411;DHT22;11878;51.774;7.220;2022-10-13T05:53:13;10.50;99.90
23411;DHT22;11878;51.774;7.220;2022-10-13T05:56:20;10.30;99.90
23411;DHT22;11878;51.774;7.220;2022-10-13T05:59:24;10.40;99.90
23411;DHT22;11878;51.774;7.220;2022-10-13T06:02:33;10.40;99.90
23411;DHT22;11878;51.774;7.220;2022-10-13T06:05:38;10.40;99.90
23411;DHT22;11878;51.774;7.220;2022-10-13T06:08:41;10.40;99.90
23411;DHT22;11878;51.774;7.220;2022-10-13T06:11:43;10.30;99.90
23411;DHT22;11878;51.774;7.220;2022-10-13T06:14:44;10.40;99.90
23411;DHT22;11878;51.774;7.220;2022-10-13T06:17:46;10.30;99.90
23411;DHT22;11878;51.774;7.220;2022-10-13T06:20:48;10.20;99.90
23411;DHT22;11878;51.774;7.220;2022-10-13T06:23:50;10.20;99.90
23411;DHT22;11878;51.774;7.220;2022-10-13T06:26:54;10.30;99.90
23411;DHT22;11878;51.774;7.220;2022-10-13T06:29:55;10.20;99.90
23411;DHT22;11878;51.774;7.220;2022-10-13T06:32:57;10.20;99.90
23411;DHT22;11878;51.774;7.220;2022-10-13T06:36:03;10.30;99.90
23411;DHT22;11878;51.774;7.220;2022-10-13T06:39:05;10.40;99.90
23411;DHT22;11878;51.774;7.220;2022-10-13T06:42:07;10.30;99.90
23411;DHT22;11878;51.774;7.220;2022-10-13T06:45:11;11.70;99.90
23411;DHT22;11878;51.774;7.220;2022-10-13T06:48:14;10.50;99.90
23411;DHT22;11878;51.774;7.220;2022-10-13T06:51:15;10.40;99.90
23411;DHT22;11878;51.774;7.220;2022-10-13T06:54:18;10.40;99.90
23411;DHT22;11878;51.774;7.220;2022-10-13T06:57:19;10.40;99.90
23411;DHT22;11878;51.774;7.220;2022-10-13T07:00:21;10.40;99.90
23411;DHT22;11878;51.774;7.220;2022-10-13T07:03:23;10.40;99.90
23411;DHT22;11878;51.774;7.220;2022-10-13T07:06:25;10.30;99.90
23411;DHT22;11878;51.774;7.220;2022-10-13T07:09:27;10.40;99.90
23411;DHT22;11878;51.774;7.220;2022-10-13T07:12:29;10.40;99.90
23411;DHT22;11878;51.774;7.220;2022-10-13T07:15:31;10.40;99.90
23411;DHT22;11878;51.774;7.220;2022-10-13T07:18:33;10.40;99.90
23411;DHT22;11878;51.774;7.220;2022-10-13T07:21:34;10.40;99.90
23411;DHT22;11878;51.774;7.220;2022-10-13T07:24:36;10.60;99.90
23411;DHT22;11878;51.774;7.220;2022-10-13T07:27:38;10.40;99.90
23411;DHT22;11878;51.774;7.220;2022-10-13T07:30:41;10.50;99.90
23411;DHT22;11878;51.774;7.220;2022-10-13T07:33:45;10.60;99.90
23411;DHT22;11878;51.774;7.220;2022-10-13T07:36:50;10.70;99.90
23411;DHT22;11878;51.774;7.220;2022-10-13T07:39:52;10.90;99.90
23411;DHT22;11878;51.774;7.220;2022-10-13T07:42:55;11.10;99.90
23411;DHT22;11878;51.774;7.220;2022-10-13T07:45:58;11.20;99.90
23411;DHT22;11878;51.774;7.220;2022-10-13T07:49:01;11.30;99.90
23411;DHT22;11878;51.774;7.220;2022-10-13T07:52:02;11.30;99.90
23411;DHT22;11878;51.774;7.220;2022-10-13T07:55:05;11.40;99.90
23411;DHT22;11878;51.774;7.220;2022-10-13T07:58:06;11.40;99.90
23411;DHT22;11878;51.774;7.220;2022-10-13T08:01:09;11.40;99.90
23411;DHT22;11878;51.774;7.220;2022-10-13T08:04:14;11.40;99.90
23411;DHT22;11878;51.774;7.220;2022-10-13T08:07:16;11.40;99.90
23411;DHT22;11878;51.774;7.220;2022-10-13T08:10:18;11.50;99.90
23411;DHT22;11878;51.774;7.220;2022-10-13T08:13:21;11.60;99.90
23411;DHT22;11878;51.774;7.220;2022-10-13T08:16:23;11.60;99.90
23411;DHT22;11878;51.774;7.220;2022-10-13T08:19:24;11.70;99.90
23411;DHT22;11878;51.774;7.220;2022-10-13T08:22:27;11.80;99.90
23411;DHT22;11878;51.774;7.220;2022-10-13T08:25:29;11.80;99.90
23411;DHT22;11878;51.774;7.220;2022-10-13T08:28:31;11.80;99.90
23411;DHT22;11878;51.774;7.220;2022-10-13T08:31:33;11.80;99.90
23411;DHT22;11878;51.774;7.220;2022-10-13T08:34:35;11.90;99.90
23411;DHT22;11878;51.774;7.220;2022-10-13T08:37:37;11.90;99.90
23411;DHT22;11878;51.774;7.220;2022-10-13T08:40:39;11.90;99.90
23411;DHT22;11878;51.774;7.220;2022-10-13T08:43:43;12.00;99.90
23411;DHT22;11878;51.774;7.220;2022-10-13T08:50:30;12.00;99.90
23411;DHT22;11878;51.774;7.220;2022-10-13T08:53:44;12.10;99.90
23411;DHT22;11878;51.774;7.220;2022-10-13T08:56:46;12.10;99.90
23411;DHT22;11878;51.774;7.220;2022-10-13T08:59:51;12.20;99.90
23411;DHT22;11878;51.774;7.220;2022-10-13T09:02:59;12.20;99.90
23411;DHT22;11878;51.774;7.220;2022-10-13T09:06:16;12.10;99.90
23411;DHT22;11878;51.774;7.220;2022-10-13T09:09:18;12.10;99.90
23411;DHT22;11878;51.774;7.220;2022-10-13T09:12:21;12.20;99.90
23411;DHT22;11878;51.774;7.220;2022-10-13T09:15:25;12.20;99.90
23411;DHT22;11878;51.774;7.220;2022-10-13T09:18:29;12.30;99.90
23411;DHT22;11878;51.774;7.220;2022-10-13T09:21:32;12.30;99.90
23411;DHT22;11878;51.774;7.220;2022-10-13T09:24:33;12.30;99.90
23411;DHT22;11878;51.774;7.220;2022-10-13T09:27:45;12.40;99.90
23411;DHT22;11878;51.774;7.220;2022-10-13T09:30:47;12.40;99.90
23411;DHT22;11878;51.774;7.220;2022-10-13T09:34:13;12.40;99.90
23411;DHT22;11878;51.774;7.220;2022-10-13T09:37:25;12.50;99.90
23411;DHT22;11878;51.774;7.220;2022-10-13T09:40:27;12.50;99.90
23411;DHT22;11878;51.774;7.220;2022-10-13T09:43:35;12.60;99.90
23411;DHT22;11878;51.774;7.220;2022-10-13T09:46:44;12.60;99.90
23411;DHT22;11878;51.774;7.220;2022-10-13T09:50:03;12.70;99.90
23411;DHT22;11878;51.774;7.220;2022-10-13T09:53:24;12.80;99.90
23411;DHT22;11878;51.774;7.220;2022-10-13T09:56:42;12.90;99.90
23411;DHT22;11878;51.774;7.220;2022-10-13T09:59:51;13.10;99.90
23411;DHT22;11878;51.774;7.220;2022-10-13T10:06:11;13.30;99.90
23411;DHT22;11878;51.774;7.220;2022-10-13T10:09:40;13.30;99.90
23411;DHT22;11878;51.774;7.220;2022-10-13T10:12:44;13.40;99.90
23411;DHT22;11878;51.774;7.220;2022-10-13T10:25:44;13.80;99.90
23411;DHT22;11878;51.774;7.220;2022-10-13T10:28:55;13.90;99.90
23411;DHT22;11878;51.774;7.220;2022-10-13T10:35:48;14.20;99.90
23411;DHT22;11878;51.774;7.220;2022-10-13T10:38:56;14.40;99.90
23411;DHT22;11878;51.774;7.220;2022-10-13T10:45:37;14.70;99.90
23411;DHT22;11878;51.774;7.220;2022-10-13T10:48:40;14.90;99.90
23411;DHT22;11878;51.774;7.220;2022-10-13T10:51:44;15.10;99.90
23411;DHT22;11878;51.774;7.220;2022-10-13T10:54:52;15.10;99.90
23411;DHT22;11878;51.774;7.220;2022-10-13T11:01:40;15.20;99.90
23411;DHT22;11878;51.774;7.220;2022-10-13T11:04:48;15.20;99.90
23411;DHT22;11878;51.774;7.220;2022-10-13T11:14:42;15.20;99.90
23411;DHT22;11878;51.774;7.220;2022-10-13T11:17:43;15.40;99.90
23411;DHT22;11878;51.774;7.220;2022-10-13T11:23:48;15.70;99.90
23411;DHT22;11878;51.774;7.220;2022-10-13T11:26:50;15.80;99.90
23411;DHT22;11878;51.774;7.220;2022-10-13T11:29:57;15.80;99.90
23411;DHT22;11878;51.774;7.220;2022-10-13T11:33:00;15.80;99.90
23411;DHT22;11878;51.774;7.220;2022-10-13T11:39:49;15.90;99.90
23411;DHT22;11878;51.774;7.220;2022-10-13T11:43:22;16.10;99.90
23411;DHT22;11878;51.774;7.220;2022-10-13T11:50:39;16.20;99.90
23411;DHT22;11878;51.774;7.220;2022-10-13T11:54:09;16.20;99.90
23411;DHT22;11878;51.774;7.220;2022-10-13T11:57:23;16.30;99.90
23411;DHT22;11878;51.774;7.220;2022-10-13T12:00:25;16.50;99.90
23411;DHT22;11878;51.774;7.220;2022-10-13T12:03:39;16.50;99.90
23411;DHT22;11878;51.774;7.220;2022-10-13T12:06:47;16.60;99.90
23411;DHT22;11878;51.774;7.220;2022-10-13T12:09:55;16.70;99.90
23411;DHT22;11878;51.774;7.220;2022-10-13T12:12:58;16.60;99.90
23411;DHT22;11878;51.774;7.220;2022-10-13T12:16:03;16.70;99.90
23411;DHT22;11878;51.774;7.220;2022-10-13T12:19:20;16.60;99.90
23411;DHT22;11878;51.774;7.220;2022-10-13T12:22:23;16.50;99.90
23411;DHT22;11878;51.774;7.220;2022-10-13T12:25:27;16.40;99.90
23411;DHT22;11878;51.774;7.220;2022-10-13T12:28:55;16.40;99.90
23411;DHT22;11878;51.774;7.220;2022-10-13T12:31:57;16.40;99.90
23411;DHT22;11878;51.774;7.220;2022-10-13T12:35:32;16.30;99.90
23411;DHT22;11878;51.774;7.220;2022-10-13T12:38:34;16.20;99.90
23411;DHT22;11878;51.774;7.220;2022-10-13T12:41:39;16.20;99.90
23411;DHT22;11878;51.774;7.220;2022-10-13T12:44:41;16.20;99.90
23411;DHT22;11878;51.774;7.220;2022-10-13T12:50:45;16.10;99.90
23411;DHT22;11878;51.774;7.220;2022-10-13T12:53:47;16.00;99.90
23411;DHT22;11878;51.774;7.220;2022-10-13T12:56:51;15.90;99.90
23411;DHT22;11878;51.774;7.220;2022-10-13T12:59:57;15.80;99.90
23411;DHT22;11878;51.774;7.220;2022-10-13T13:03:03;15.80;99.90
23411;DHT22;11878;51.774;7.220;2022-10-13T13:12:27;15.50;99.90
23411;DHT22;11878;51.774;7.220;2022-10-13T13:15:36;15.40;99.90
23411;DHT22;11878;51.774;7.220;2022-10-13T13:18:39;15.30;99.90
23411;DHT22;11878;51.774;7.220;2022-10-13T13:21:42;15.20;99.90
23411;DHT22;11878;51.774;7.220;2022-10-13T13:24:44;15.20;99.90
23411;DHT22;11878;51.774;7.220;2022-10-13T13:27:47;15.00;99.90
23411;DHT22;11878;51.774;7.220;2022-10-13T13:30:50;14.90;99.90
23411;DHT22;11878;51.774;7.220;2022-10-13T13:33:51;14.80;99.90
23411;DHT22;11878;51.774;7.220;2022-10-13T13:36:53;14.80;99.90
23411;DHT22;11878;51.774;7.220;2022-10-13T13:39:55;14.70;99.90
23411;DHT22;11878;51.774;7.220;2022-10-13T13:42:57;14.70;99.90
23411;DHT22;11878;51.774;7.220;2022-10-13T13:46:05;14.70;99.90
23411;DHT22;11878;51.774;7.220;2022-10-13T13:49:09;14.70;99.90
23411;DHT22;11878;51.774;7.220;2022-10-13T13:52:12;14.70;99.90
23411;DHT22;11878;51.774;7.220;2022-10-13T13:55:14;14.70;99.90
23411;DHT22;11878;51.774;7.220;2022-10-13T13:58:15;14.70;99.90
23411;DHT22;11878;51.774;7.220;2022-10-13T14:01:17;14.60;99.90
23411;DHT22;11878;51.774;7.220;2022-10-13T14:04:19;14.60;99.90
23411;DHT22;11878;51.774;7.220;2022-10-13T14:07:21;14.60;99.90
23411;DHT22;11878;51.774;7.220;2022-10-13T14:10:25;14.60;99.90
23411;DHT22;11878;51.774;7.220;2022-10-13T14:13:26;14.60;99.90
23411;DHT22;11878;51.774;7.220;2022-10-13T14:16:28;14.50;99.90
23411;DHT22;11878;51.774;7.220;2022-10-13T14:19:32;14.50;99.90
23411;DHT22;11878;51.774;7.220;2022-10-13T14:22:36;14.50;99.90
23411;DHT22;11878;51.774;7.220;2022-10-13T14:25:38;14.50;99.90
23411;DHT22;11878;51.774;7.220;2022-10-13T14:28:41;14.50;99.90
23411;DHT22;11878;51.774;7.220;2022-10-13T14:31:43;14.50;99.90
23411;DHT22;11878;51.774;7.220;2022-10-13T14:34:45;14.50;99.90
23411;DHT22;11878;51.774;7.220;2022-10-13T14:37:46;14.50;99.90
23411;DHT22;11878;51.774;7.220;2022-10-13T14:40:48;14.40;99.90
23411;DHT22;11878;51.774;7.220;2022-10-13T14:43:53;14.40;99.90
23411;DHT22;11878;51.774;7.220;2022-10-13T14:46:55;14.40;99.90
23411;DHT22;11878;51.774;7.220;2022-10-13T14:49:57;14.40;99.90
23411;DHT22;11878;51.774;7.220;2022-10-13T14:53:01;14.40;99.90
23411;DHT22;11878;51.774;7.220;2022-10-13T14:59:23;14.30;99.90
23411;DHT22;11878;51.774;7.220;2022-10-13T15:02:24;14.30;99.90
23411;DHT22;11878;51.774;7.220;2022-10-13T15:05:27;14.30;99.90
23411;DHT22;11878;51.774;7.220;2022-10-13T15:08:28;14.30;99.90
23411;DHT22;11878;51.774;7.220;2022-10-13T15:11:31;14.20;99.90
23411;DHT22;11878;51.774;7.220;2022-10-13T15:14:32;14.20;99.90
23411;DHT22;11878;51.774;7.220;2022-10-13T15:17:35;14.20;99.90
23411;DHT22;11878;51.774;7.220;2022-10-13T15:20:37;14.10;99.90
23411;DHT22;11878;51.774;7.220;2022-10-13T15:23:39;14.10;99.90
23411;DHT22;11878;51.774;7.220;2022-10-13T15:26:41;14.10;99.90
23411;DHT22;11878;51.774;7.220;2022-10-13T15:29:42;14.10;99.90
23411;DHT22;11878;51.774;7.220;2022-10-13T15:32:47;14.10;99.90
23411;DHT22;11878;51.774;7.220;2022-10-13T15:35:50;14.00;99.90
23411;DHT22;11878;51.774;7.220;2022-10-13T15:38:52;14.10;99.90
23411;DHT22;11878;51.774;7.220;2022-10-13T15:41:55;14.00;99.90
23411;DHT22;11878;51.774;7.220;2022-10-13T15:44:56;14.00;99.90
23411;DHT22;11878;51.774;7.220;2022-10-13T15:48:11;14.00;99.90
23411;DHT22;11878;51.774;7.220;2022-10-13T15:51:18;13.90;99.90
23411;DHT22;11878;51.774;7.220;2022-10-13T15:54:21;14.00;99.90
23411;DHT22;11878;51.774;7.220;2022-10-13T15:57:23;13.90;99.90
23411;DHT22;11878;51.774;7.220;2022-10-13T16:00:24;13.90;99.90
23411;DHT22;11878;51.774;7.220;2022-10-13T16:03:26;13.80;99.90
23411;DHT22;11878;51.774;7.220;2022-10-13T16:06:30;13.90;99.90
23411;DHT22;11878;51.774;7.220;2022-10-13T16:09:33;13.80;99.90
23411;DHT22;11878;51.774;7.220;2022-10-13T16:12:35;13.80;99.90
23411;DHT22;11878;51.774;7.220;2022-10-13T16:15:38;13.80;99.90
23411;DHT22;11878;51.774;7.220;2022-10-13T16:18:40;13.80;99.90
23411;DHT22;11878;51.774;7.220;2022-10-13T16:21:42;13.70;99.90
23411;DHT22;11878;51.774;7.220;2022-10-13T16:24:44;13.70;99.90
23411;DHT22;11878;51.774;7.220;2022-10-13T16:27:45;13.60;99.90
23411;DHT22;11878;51.774;7.220;2022-10-13T16:30:47;13.60;99.90
23411;DHT22;11878;51.774;7.220;2022-10-13T16:33:49;13.60;99.90
23411;DHT22;11878;51.774;7.220;2022-10-13T16:36:51;13.60;99.90
23411;DHT22;11878;51.774;7.220;2022-10-13T16:39:52;13.60;99.90
23411;DHT22;11878;51.774;7.220;2022-10-13T16:42:54;13.50;99.90
23411;DHT22;11878;51.774;7.220;2022-10-13T16:45:57;13.50;99.90
23411;DHT22;11878;51.774;7.220;2022-10-13T16:49:01;13.50;99.90
23411;DHT22;11878;51.774;7.220;2022-10-13T16:52:02;13.50;99.90
23411;DHT22;11878;51.774;7.220;2022-10-13T16:55:04;13.50;99.90
23411;DHT22;11878;51.774;7.220;2022-10-13T16:58:06;13.50;99.90
23411;DHT22;11878;51.774;7.220;2022-10-13T17:01:09;13.40;99.90
23411;DHT22;11878;51.774;7.220;2022-10-13T17:04:11;13.50;99.90
23411;DHT22;11878;51.774;7.220;2022-10-13T17:07:13;13.40;99.90
23411;DHT22;11878;51.774;7.220;2022-10-13T17:10:15;13.40;99.90
23411;DHT22;11878;51.774;7.220;2022-10-13T17:13:17;13.40;99.90
23411;DHT22;11878;51.774;7.220;2022-10-13T17:16:19;13.40;99.90
23411;DHT22;11878;51.774;7.220;2022-10-13T17:19:21;13.40;99.90
23411;DHT22;11878;51.774;7.220;2022-10-13T17:22:22;13.40;99.90
23411;DHT22;11878;51.774;7.220;2022-10-13T17:25:24;13.40;99.90
23411;DHT22;11878;51.774;7.220;2022-10-13T17:28:26;13.40;99.90
23411;DHT22;11878;51.774;7.220;2022-10-13T17:31:28;13.30;99.90
23411;DHT22;11878;51.774;7.220;2022-10-13T17:34:29;13.30;99.90
23411;DHT22;11878;51.774;7.220;2022-10-13T17:37:33;13.30;99.90
23411;DHT22;11878;51.774;7.220;2022-10-13T17:40:35;13.30;99.90
23411;DHT22;11878;51.774;7.220;2022-10-13T17:43:38;13.30;99.90
23411;DHT22;11878;51.774;7.220;2022-10-13T17:46:40;13.30;99.90
23411;DHT22;11878;51.774;7.220;2022-10-13T17:49:41;13.30;99.90
23411;DHT22;11878;51.774;7.220;2022-10-13T17:52:45;13.30;99.90
23411;DHT22;11878;51.774;7.220;2022-10-13T17:55:47;13.30;99.90
23411;DHT22;11878;51.774;7.220;2022-10-13T17:58:52;13.30;99.90
23411;DHT22;11878;51.774;7.220;2022-10-13T18:01:54;13.20;99.90
23411;DHT22;11878;51.774;7.220;2022-10-13T18:04:55;13.30;99.90
23411;DHT22;11878;51.774;7.220;2022-10-13T18:07:57;13.30;99.90
23411;DHT22;11878;51.774;7.220;2022-10-13T18:11:06;13.20;99.90
23411;DHT22;11878;51.774;7.220;2022-10-13T18:14:09;13.20;99.90
23411;DHT22;11878;51.774;7.220;2022-10-13T18:17:14;13.20;99.90
23411;DHT22;11878;51.774;7.220;2022-10-13T18:20:16;13.20;99.90
23411;DHT22;11878;51.774;7.220;2022-10-13T18:23:20;13.20;99.90
23411;DHT22;11878;51.774;7.220;2022-10-13T18:26:22;13.30;99.90
23411;DHT22;11878;51.774;7.220;2022-10-13T18:29:24;13.30;99.90
23411;DHT22;11878;51.774;7.220;2022-10-13T18:32:26;13.30;99.90
23411;DHT22;11878;51.774;7.220;2022-10-13T18:35:28;13.30;99.90
23411;DHT22;11878;51.774;7.220;2022-10-13T18:38:32;13.20;99.90
23411;DHT22;11878;51.774;7.220;2022-10-13T18:41:35;13.30;99.90
23411;DHT22;11878;51.774;7.220;2022-10-13T18:44:37;13.30;99.90
23411;DHT22;11878;51.774;7.220;2022-10-13T18:47:38;13.20;99.90
23411;DHT22;11878;51.774;7.220;2022-10-13T18:50:40;13.30;99.90
23411;DHT22;11878;51.774;7.220;2022-10-13T18:53:44;13.30;99.90
23411;DHT22;11878;51.774;7.220;2022-10-13T18:56:47;13.30;99.90
23411;DHT22;11878;51.774;7.220;2022-10-13T18:59:49;13.30;99.90
23411;DHT22;11878;51.774;7.220;2022-10-13T19:02:52;13.30;99.90
23411;DHT22;11878;51.774;7.220;2022-10-13T19:05:53;13.30;99.90
23411;DHT22;11878;51.774;7.220;2022-10-13T19:09:01;13.30;99.90
23411;DHT22;11878;51.774;7.220;2022-10-13T19:12:03;13.30;99.90
23411;DHT22;11878;51.774;7.220;2022-10-13T19:15:05;13.30;99.90
23411;DHT22;11878;51.774;7.220;2022-10-13T19:18:07;13.30;99.90
23411;DHT22;11878;51.774;7.220;2022-10-13T19:21:10;13.30;99.90
23411;DHT22;11878;51.774;7.220;2022-10-13T19:24:12;13.30;99.90
23411;DHT22;11878;51.774;7.220;2022-10-13T19:27:14;13.30;99.90
23411;DHT22;11878;51.774;7.220;2022-10-13T19:30:16;13.30;99.90
23411;DHT22;11878;51.774;7.220;2022-10-13T19:33:17;13.30;99.90
23411;DHT22;11878;51.774;7.220;2022-10-13T19:39:33;13.40;99.90
23411;DHT22;11878;51.774;7.220;2022-10-13T19:42:35;13.30;99.90
23411;DHT22;11878;51.774;7.220;2022-10-13T19:45:48;13.30;99.90
23411;DHT22;11878;51.774;7.220;2022-10-13T19:49:00;13.30;99.90
23411;DHT22;11878;51.774;7.220;2022-10-13T19:52:02;13.40;99.90
23411;DHT22;11878;51.774;7.220;2022-10-13T19:55:04;13.30;99.90
23411;DHT22;11878;51.774;7.220;2022-10-13T19:58:06;13.30;99.90
23411;DHT22;11878;51.774;7.220;2022-10-13T20:01:08;13.30;99.90
23411;DHT22;11878;51.774;7.220;2022-10-13T20:04:10;13.30;99.90
23411;DHT22;11878;51.774;7.220;2022-10-13T20:07:12;13.30;99.90
23411;DHT22;11878;51.774;7.220;2022-10-13T20:10:14;13.30;99.90
23411;DHT22;11878;51.774;7.220;2022-10-13T20:13:15;13.30;99.90
23411;DHT22;11878;51.774;7.220;2022-10-13T20:16:22;13.30;99.90
23411;DHT22;11878;51.774;7.220;2022-10-13T20:19:24;13.30;99.90
23411;DHT22;11878;51.774;7.220;2022-10-13T20:22:26;13.30;99.90
23411;DHT22;11878;51.774;7.220;2022-10-13T20:25:28;13.30;99.90
23411;DHT22;11878;51.774;7.220;2022-10-13T20:28:30;13.20;99.90
23411;DHT22;11878;51.774;7.220;2022-10-13T20:31:32;13.30;99.90
23411;DHT22;11878;51.774;7.220;2022-10-13T20:34:33;13.20;99.90
23411;DHT22;11878;51.774;7.220;2022-10-13T20:37:35;13.20;99.90
23411;DHT22;11878;51.774;7.220;2022-10-13T20:40:37;13.20;99.90
23411;DHT22;11878;51.774;7.220;2022-10-13T20:43:39;13.20;99.90
23411;DHT22;11878;51.774;7.220;2022-10-13T20:46:40;13.20;99.90